Time;durP1;ratioP1;P1;durP2;ratioP2;P2;SDS_P1;SDS_P2;PMS_P1;PMS_P2;Temp;Humidity;BMP_temperature;BMP_pressure;BME280_temperature;BME280_humidity;BME280_pressure;Samples;Min_cycle;Max_cycle;Signal;HPM_P1;HPM_P2
2021/06/11 00:01:54;;;;;;;11.00;7.07;;;13.70;99.90;;;;;;5014852;28;20045;-66
2021/06/11 00:04:21;;;;;;;11.85;7.25;;;13.70;99.90;;;;;;5016961;28;20055;-67
2021/06/11 00:06:48;;;;;;;10.50;7.38;;;13.60;99.90;;;;;;5015284;28;20061;-67
2021/06/11 00:09:17;;;;;;;9.40;7.80;;;13.60;99.90;;;;;;5016145;28;20059;-66
2021/06/11 00:11:45;;;;;;;8.82;7.63;;;13.60;99.90;;;;;;5013530;28;20081;-67
2021/06/11 00:14:12;;;;;;;8.65;7.53;;;13.50;99.90;;;;;;5015150;28;20123;-66
2021/06/11 00:16:39;;;;;;;9.40;8.43;;;13.50;99.90;;;;;;5014324;28;20150;-67
2021/06/11 00:19:06;;;;;;;12.50;7.97;;;13.50;99.90;;;;;;5016230;28;20099;-67
2021/06/11 00:21:33;;;;;;;8.82;6.97;;;13.40;99.90;;;;;;5013141;28;20150;-66
2021/06/11 00:24:00;;;;;;;8.50;7.43;;;13.40;99.90;;;;;;5014334;28;20114;-67
2021/06/11 00:26:27;;;;;;;9.35;7.50;;;13.40;99.90;;;;;;5016838;28;20187;-67
2021/06/11 00:28:54;;;;;;;10.05;7.97;;;13.40;99.90;;;;;;5016739;28;20041;-66
2021/06/11 00:31:21;;;;;;;10.45;8.25;;;13.30;99.90;;;;;;5018093;28;20543;-67
2021/06/11 00:33:48;;;;;;;13.55;9.30;;;13.30;99.90;;;;;;5016673;28;20065;-67
2021/06/11 00:36:15;;;;;;;10.13;7.25;;;13.30;99.90;;;;;;5018175;28;20115;-67
2021/06/11 00:38:42;;;;;;;9.68;7.75;;;13.20;99.90;;;;;;5018322;28;20096;-66
2021/06/11 00:41:09;;;;;;;11.02;7.30;;;13.20;99.90;;;;;;5018611;28;20177;-67
2021/06/11 00:43:35;;;;;;;13.18;8.05;;;13.20;99.90;;;;;;5016249;28;20145;-67
2021/06/11 00:46:02;;;;;;;11.15;7.93;;;13.10;99.90;;;;;;5019657;28;20076;-66
2021/06/11 00:48:30;;;;;;;9.75;7.18;;;13.10;99.90;;;;;;5016831;28;20156;-67
2021/06/11 00:50:56;;;;;;;8.82;7.00;;;13.10;99.90;;;;;;5018131;28;20592;-66
2021/06/11 00:53:23;;;;;;;9.55;8.07;;;13.00;99.90;;;;;;5017824;28;20147;-66
2021/06/11 00:55:50;;;;;;;11.43;7.72;;;13.00;99.90;;;;;;5015788;28;20619;-66
2021/06/11 00:58:18;;;;;;;11.85;7.35;;;13.00;99.90;;;;;;5015478;28;20103;-66
2021/06/11 01:00:47;;;;;;;10.13;8.07;;;13.00;99.90;;;;;;5018934;28;20526;-66
2021/06/11 01:03:16;;;;;;;12.30;7.80;;;12.90;99.90;;;;;;5018116;28;20037;-66
2021/06/11 01:05:42;;;;;;;9.05;7.90;;;12.90;99.90;;;;;;5016178;28;20170;-66
2021/06/11 01:08:11;;;;;;;8.98;7.75;;;12.90;99.90;;;;;;5007060;28;20107;-67
2021/06/11 01:10:38;;;;;;;8.65;6.25;;;12.90;99.90;;;;;;5014009;28;20175;-66
2021/06/11 01:13:06;;;;;;;12.10;6.85;;;12.80;99.90;;;;;;5013649;28;20163;-66
2021/06/11 01:15:33;;;;;;;9.27;8.27;;;12.80;99.90;;;;;;5014257;28;20045;-67
2021/06/11 01:18:00;;;;;;;11.55;7.53;;;12.80;99.90;;;;;;5014979;28;20096;-66
2021/06/11 01:20:27;;;;;;;12.23;7.57;;;12.80;99.90;;;;;;5017538;28;20187;-66
2021/06/11 01:23:14;;;;;;;9.00;7.25;;;12.70;99.90;;;;;;5014496;28;20159;-66
2021/06/11 01:26:09;;;;;;;7.38;6.72;;;12.70;99.90;;;;;;5014523;28;20072;-66
2021/06/11 01:28:37;;;;;;;8.45;7.60;;;12.70;99.90;;;;;;5016353;28;20081;-66
2021/06/11 01:31:04;;;;;;;8.40;6.72;;;12.60;99.90;;;;;;5017223;28;20049;-67
2021/06/11 01:33:33;;;;;;;10.98;7.30;;;12.60;99.90;;;;;;5013614;28;20131;-67
2021/06/11 01:36:03;;;;;;;13.50;7.88;;;12.60;99.90;;;;;;5016008;28;20116;-66
2021/06/11 01:38:37;;;;;;;8.70;7.88;;;12.60;99.90;;;;;;5016418;28;20065;-66
2021/06/11 01:41:06;;;;;;;10.05;8.13;;;12.60;99.90;;;;;;5017185;28;20047;-67
2021/06/11 01:43:36;;;;;;;13.63;9.52;;;12.50;99.90;;;;;;5016742;28;20069;-67
2021/06/11 01:46:03;;;;;;;9.02;8.13;;;12.50;99.90;;;;;;5019375;28;21439;-67
2021/06/11 01:48:31;;;;;;;10.02;7.55;;;12.50;99.90;;;;;;5019052;28;20168;-66
2021/06/11 01:50:58;;;;;;;11.70;8.70;;;12.50;99.90;;;;;;5019670;28;20064;-66
2021/06/11 01:53:26;;;;;;;10.10;7.88;;;12.50;99.90;;;;;;5019531;28;20138;-66
2021/06/11 01:55:55;;;;;;;7.80;7.07;;;12.50;99.90;;;;;;5016240;28;20126;-66
2021/06/11 01:58:23;;;;;;;8.85;6.95;;;12.50;99.90;;;;;;5019646;28;20084;-66
2021/06/11 02:00:52;;;;;;;10.35;9.52;;;12.40;99.90;;;;;;5033788;28;20691;-66
2021/06/11 02:03:20;;;;;;;9.93;6.63;;;12.40;99.90;;;;;;5020226;28;20037;-66
2021/06/11 02:05:47;;;;;;;10.40;7.40;;;12.40;99.90;;;;;;5016967;28;20055;-66
2021/06/11 02:08:15;;;;;;;13.02;8.65;;;12.30;99.90;;;;;;5020625;28;20106;-66
2021/06/11 02:10:43;;;;;;;8.70;6.95;;;12.40;99.90;;;;;;5018149;28;20046;-66
2021/06/11 02:13:10;;;;;;;11.77;7.22;;;12.30;99.90;;;;;;5018257;28;20052;-66
2021/06/11 02:15:38;;;;;;;9.25;7.63;;;12.30;99.90;;;;;;5016665;28;20135;-66
2021/06/11 02:18:05;;;;;;;9.88;7.43;;;12.30;99.90;;;;;;5018402;28;20709;-66
2021/06/11 02:20:33;;;;;;;8.55;6.72;;;12.30;99.90;;;;;;5017054;28;20059;-66
2021/06/11 02:23:00;;;;;;;8.68;7.88;;;12.30;99.90;;;;;;5018251;28;21536;-66
2021/06/11 02:25:27;;;;;;;9.75;8.93;;;12.30;99.90;;;;;;5017410;28;20179;-66
2021/06/11 02:27:56;;;;;;;8.95;8.15;;;12.30;99.90;;;;;;5017990;28;20084;-66
2021/06/11 02:30:24;;;;;;;9.32;8.52;;;12.40;99.90;;;;;;5017733;28;20045;-66
2021/06/11 02:32:51;;;;;;;8.27;7.45;;;12.40;99.90;;;;;;5019768;28;20643;-66
2021/06/11 02:35:21;;;;;;;13.25;7.93;;;12.40;99.90;;;;;;5017797;28;20057;-66
2021/06/11 02:37:49;;;;;;;9.55;8.55;;;12.40;99.90;;;;;;5017926;28;20156;-66
2021/06/11 02:40:17;;;;;;;9.00;7.95;;;12.40;99.90;;;;;;5017817;28;20069;-66
2021/06/11 02:42:48;;;;;;;9.35;8.45;;;12.50;99.90;;;;;;5018355;28;20080;-66
2021/06/11 02:45:21;;;;;;;7.90;7.20;;;12.50;99.90;;;;;;5016523;28;20068;-66
2021/06/11 02:48:05;;;;;;;9.48;7.00;;;12.50;99.90;;;;;;5016724;28;20077;-66
2021/06/11 02:50:37;;;;;;;10.18;9.15;;;12.50;99.90;;;;;;5017704;28;20065;-66
2021/06/11 02:53:06;;;;;;;10.73;8.63;;;12.60;99.90;;;;;;5016874;28;20110;-66
2021/06/11 02:55:35;;;;;;;9.15;7.78;;;12.60;99.90;;;;;;5017226;28;20083;-66
2021/06/11 02:58:22;;;;;;;9.13;8.15;;;12.60;99.90;;;;;;5015822;28;20524;-66
2021/06/11 03:00:50;;;;;;;11.52;8.52;;;12.60;99.90;;;;;;5019461;28;20081;-66
2021/06/11 03:03:23;;;;;;;9.30;8.32;;;12.70;99.90;;;;;;5017393;28;21190;-66
2021/06/11 03:05:56;;;;;;;8.80;8.00;;;12.70;99.90;;;;;;5018004;28;20409;-66
2021/06/11 03:08:27;;;;;;;11.57;8.57;;;12.70;99.90;;;;;;5016239;28;20080;-66
2021/06/11 03:10:59;;;;;;;8.45;7.32;;;12.70;99.90;;;;;;5013563;28;20050;-66
2021/06/11 03:13:28;;;;;;;9.40;7.32;;;12.70;99.90;;;;;;5017460;28;20112;-66
2021/06/11 03:15:57;;;;;;;8.27;7.43;;;12.80;99.90;;;;;;5015865;28;20850;-66
2021/06/11 03:18:38;;;;;;;8.25;7.45;;;12.80;99.90;;;;;;5015373;28;20148;-66
2021/06/11 03:21:17;;;;;;;8.90;8.02;;;12.90;99.90;;;;;;5019605;28;21330;-66
2021/06/11 03:24:04;;;;;;;10.10;7.88;;;12.90;99.90;;;;;;5015459;28;20076;-66
2021/06/11 03:26:46;;;;;;;8.20;7.13;;;12.90;99.90;;;;;;5018725;28;20046;-66
2021/06/11 03:29:16;;;;;;;7.88;7.05;;;13.00;99.90;;;;;;5017511;28;20045;-66
2021/06/11 03:31:48;;;;;;;7.22;6.50;;;13.00;99.90;;;;;;5016168;28;20076;-66
2021/06/11 03:34:24;;;;;;;11.05;7.60;;;13.10;99.90;;;;;;5018378;28;20053;-66
2021/06/11 03:36:53;;;;;;;10.32;7.68;;;13.10;99.90;;;;;;5017323;28;20696;-66
2021/06/11 03:39:31;;;;;;;8.70;7.57;;;13.20;99.90;;;;;;5018172;28;20057;-66
2021/06/11 03:41:59;;;;;;;8.65;7.85;;;13.20;99.90;;;;;;5016098;28;20061;-66
2021/06/11 03:44:28;;;;;;;7.07;6.43;;;13.30;99.90;;;;;;5018291;28;20049;-66
2021/06/11 03:46:58;;;;;;;9.25;7.90;;;13.40;99.90;;;;;;5015114;28;20057;-66
2021/06/11 03:49:27;;;;;;;9.75;7.95;;;13.40;99.90;;;;;;5018070;28;20085;-66
2021/06/11 03:51:55;;;;;;;10.80;8.38;;;13.50;99.90;;;;;;5015559;28;20057;-66
2021/06/11 03:54:24;;;;;;;9.13;8.32;;;13.50;99.90;;;;;;5012833;28;20207;-66
2021/06/11 03:56:52;;;;;;;8.38;6.95;;;13.60;99.90;;;;;;5014963;28;20092;-66
2021/06/11 03:59:23;;;;;;;8.52;7.72;;;13.60;99.90;;;;;;5018502;28;20114;-66
2021/06/11 04:01:51;;;;;;;9.50;7.45;;;13.70;99.90;;;;;;5016415;28;20140;-66
2021/06/11 04:04:18;;;;;;;8.50;6.90;;;13.80;99.90;;;;;;5021043;28;20144;-66
2021/06/11 04:07:07;;;;;;;8.80;6.35;;;13.80;99.90;;;;;;5019754;28;20123;-66
2021/06/11 04:09:49;;;;;;;6.68;6.07;;;13.90;99.90;;;;;;5017719;28;20041;-66
2021/06/11 04:12:29;;;;;;;7.35;6.65;;;14.10;99.90;;;;;;5019855;28;20502;-66
2021/06/11 04:14:56;;;;;;;6.32;5.80;;;14.10;99.90;;;;;;5021632;28;20156;-66
2021/06/11 04:17:26;;;;;;;7.50;5.05;;;14.20;99.90;;;;;;5019754;28;20099;-65
2021/06/11 04:19:55;;;;;;;8.63;4.65;;;14.30;99.90;;;;;;5019906;28;20114;-66
2021/06/11 04:22:26;;;;;;;5.93;4.30;;;14.40;99.90;;;;;;5018914;28;20505;-66
2021/06/11 04:24:56;;;;;;;6.28;5.22;;;14.50;99.90;;;;;;5020701;28;20075;-66
2021/06/11 04:27:24;;;;;;;6.88;5.03;;;14.60;99.90;;;;;;5019474;28;20128;-66
2021/06/11 04:29:51;;;;;;;4.85;4.45;;;14.80;99.90;;;;;;5017983;28;21737;-66
2021/06/11 04:32:18;;;;;;;9.07;5.22;;;14.90;99.90;;;;;;5020540;28;20049;-66
2021/06/11 04:34:46;;;;;;;6.72;4.00;;;15.00;99.90;;;;;;5018676;28;20127;-66
2021/06/11 04:37:18;;;;;;;5.32;3.90;;;15.10;99.90;;;;;;5051318;28;20053;-65
2021/06/11 04:39:46;;;;;;;4.00;3.70;;;15.20;99.90;;;;;;5017630;28;20103;-66
2021/06/11 04:42:13;;;;;;;5.97;4.03;;;15.30;99.90;;;;;;5020446;28;20571;-66
2021/06/11 04:44:40;;;;;;;5.63;3.80;;;15.40;99.90;;;;;;5019908;28;20045;-66
2021/06/11 04:47:08;;;;;;;4.03;3.58;;;15.60;99.90;;;;;;5020458;28;20144;-66
2021/06/11 04:49:36;;;;;;;6.18;3.80;;;15.70;99.90;;;;;;5017289;28;20076;-66
2021/06/11 04:52:04;;;;;;;6.28;4.22;;;15.80;99.90;;;;;;5018919;28;20195;-66
2021/06/11 04:54:31;;;;;;;4.38;3.25;;;16.00;99.90;;;;;;5018461;28;20073;-66
2021/06/11 04:57:00;;;;;;;4.32;3.42;;;16.10;99.90;;;;;;5017954;28;20144;-66
2021/06/11 04:59:27;;;;;;;3.85;3.55;;;16.30;99.90;;;;;;5016697;28;20113;-66
2021/06/11 05:01:54;;;;;;;4.15;3.75;;;16.50;99.90;;;;;;5018015;28;20094;-66
2021/06/11 05:04:23;;;;;;;5.18;4.25;;;16.60;99.90;;;;;;5018515;28;20164;-65
2021/06/11 05:06:54;;;;;;;5.20;3.45;;;16.70;99.90;;;;;;5017080;28;20132;-66
2021/06/11 05:09:21;;;;;;;2.83;2.55;;;16.80;99.90;;;;;;5018547;28;20057;-66
2021/06/11 05:11:48;;;;;;;3.00;2.72;;;17.00;99.90;;;;;;5016886;28;20041;-66
2021/06/11 05:14:16;;;;;;;4.10;3.50;;;17.00;99.90;;;;;;5017793;28;20053;-66
2021/06/11 05:16:43;;;;;;;3.38;2.88;;;17.10;99.90;;;;;;5018322;28;20096;-66
2021/06/11 05:19:10;;;;;;;4.15;2.88;;;17.10;99.90;;;;;;5018323;28;20098;-66
2021/06/11 05:21:37;;;;;;;5.70;3.08;;;17.20;99.90;;;;;;5015028;28;20047;-66
2021/06/11 05:24:05;;;;;;;4.80;2.60;;;17.30;99.90;;;;;;5017589;28;20183;-66
2021/06/11 05:26:32;;;;;;;2.67;2.47;;;17.30;99.90;;;;;;5018622;28;20053;-66
2021/06/11 05:28:59;;;;;;;2.70;2.50;;;17.60;99.90;;;;;;5018031;28;20072;-66
2021/06/11 05:31:26;;;;;;;5.63;2.45;;;17.80;99.90;;;;;;5033230;28;20142;-66
2021/06/11 05:33:53;;;;;;;2.50;2.33;;;17.90;99.90;;;;;;5014497;28;20053;-66
2021/06/11 05:36:21;;;;;;;4.20;2.95;;;17.90;99.90;;;;;;5013554;28;20467;-66
2021/06/11 05:38:48;;;;;;;2.80;2.60;;;17.90;99.90;;;;;;5016604;28;20131;-66
2021/06/11 05:41:15;;;;;;;3.33;3.03;;;18.00;99.90;;;;;;5018069;28;20084;-66
2021/06/11 05:43:42;;;;;;;5.82;3.15;;;18.10;99.90;;;;;;5015944;28;20196;-66
2021/06/11 05:46:09;;;;;;;2.67;2.47;;;18.10;99.90;;;;;;5017507;28;20095;-66
2021/06/11 05:48:41;;;;;;;3.28;2.97;;;18.10;99.90;;;;;;5017386;28;21002;-66
2021/06/11 05:51:08;;;;;;;4.47;2.50;;;18.10;99.90;;;;;;5017872;28;20038;-66
2021/06/11 05:53:36;;;;;;;3.25;2.97;;;18.10;99.90;;;;;;5013326;28;20076;-66
2021/06/11 05:56:04;;;;;;;4.28;3.38;;;18.10;99.90;;;;;;5013705;28;20457;-66
2021/06/11 05:58:31;;;;;;;3.28;2.90;;;18.10;99.90;;;;;;5016409;28;20084;-66
2021/06/11 06:00:58;;;;;;;6.25;3.30;;;18.10;99.90;;;;;;5015616;28;20056;-66
2021/06/11 06:03:25;;;;;;;3.70;3.35;;;18.10;99.90;;;;;;5015955;28;20077;-66
2021/06/11 06:05:52;;;;;;;3.03;2.83;;;18.20;99.90;;;;;;5016113;28;20655;-67
2021/06/11 06:08:32;;;;;;;4.08;3.08;;;18.20;99.90;;;;;;3105821;28;10002402;-66
2021/06/11 06:10:59;;;;;;;3.60;3.25;;;18.30;99.90;;;;;;2593023;28;10002967;-66
2021/06/11 06:13:26;;;;;;;4.13;3.72;;;18.30;99.90;;;;;;5018653;28;20053;-65
2021/06/11 06:15:54;;;;;;;3.95;3.65;;;18.40;99.90;;;;;;5015372;28;20179;-66
2021/06/11 06:18:21;;;;;;;4.55;4.15;;;18.40;99.90;;;;;;5016089;28;20248;-66
2021/06/11 06:20:48;;;;;;;4.82;4.25;;;18.40;99.90;;;;;;5016680;28;20164;-66
2021/06/11 06:23:15;;;;;;;5.10;4.22;;;18.30;99.90;;;;;;5017405;28;20056;-65
2021/06/11 06:25:42;;;;;;;3.92;3.63;;;18.20;99.90;;;;;;5014679;28;20084;-66
2021/06/11 06:28:09;;;;;;;4.97;3.78;;;18.20;99.90;;;;;;5018173;28;20049;-66
2021/06/11 06:30:36;;;;;;;3.85;3.17;;;18.20;99.90;;;;;;5016686;28;20132;-66
2021/06/11 06:33:03;;;;;;;4.00;3.42;;;18.10;99.90;;;;;;5016769;28;20057;-66
2021/06/11 06:35:30;;;;;;;3.85;3.40;;;18.10;99.90;;;;;;5013803;28;20460;-66
2021/06/11 06:37:57;;;;;;;3.45;3.15;;;18.10;99.90;;;;;;5014430;28;20102;-66
2021/06/11 06:40:24;;;;;;;4.65;3.30;;;18.10;99.90;;;;;;5015697;28;20207;-66
2021/06/11 06:42:51;;;;;;;8.65;3.33;;;18.10;99.90;;;;;;5014873;28;20302;-66
2021/06/11 06:45:19;;;;;;;3.45;3.15;;;18.20;99.90;;;;;;5009251;28;20139;-65
2021/06/11 06:47:47;;;;;;;4.25;3.78;;;18.20;99.90;;;;;;5011446;28;20075;-66
2021/06/11 06:50:17;;;;;;;3.83;3.53;;;18.30;99.90;;;;;;5013685;28;20512;-66
2021/06/11 06:52:45;;;;;;;3.53;3.17;;;18.40;99.90;;;;;;5015313;28;20073;-66
2021/06/11 06:55:13;;;;;;;4.30;2.88;;;18.50;99.90;;;;;;5013496;28;20053;-66
2021/06/11 06:57:40;;;;;;;3.38;3.00;;;18.50;99.90;;;;;;5011073;28;20104;-66
2021/06/11 07:00:07;;;;;;;5.80;2.95;;;18.60;99.90;;;;;;5013505;28;20080;-66
2021/06/11 07:02:35;;;;;;;2.60;2.40;;;18.70;99.90;;;;;;5015263;28;20060;-65
2021/06/11 07:05:04;;;;;;;2.92;2.60;;;18.80;99.90;;;;;;5014117;28;20534;-65
2021/06/11 07:07:31;;;;;;;3.05;2.85;;;18.80;99.90;;;;;;5014132;28;20079;-66
2021/06/11 07:09:57;;;;;;;2.90;2.08;;;18.90;99.90;;;;;;5015756;28;20072;-66
2021/06/11 07:12:26;;;;;;;2.90;2.70;;;18.90;99.90;;;;;;5013314;28;20125;-66
2021/06/11 07:14:54;;;;;;;5.03;2.55;;;19.10;99.90;;;;;;5016100;28;20151;-66
2021/06/11 07:17:21;;;;;;;2.97;2.67;;;19.20;99.90;;;;;;5015270;28;20127;-66
2021/06/11 07:19:48;;;;;;;3.83;3.22;;;19.20;99.90;;;;;;5014598;28;20053;-66
2021/06/11 07:22:15;;;;;;;3.00;2.80;;;19.20;99.90;;;;;;5013672;28;20107;-66
2021/06/11 07:24:41;;;;;;;3.72;2.95;;;19.10;99.90;;;;;;5015763;28;21148;-66
2021/06/11 07:27:08;;;;;;;3.17;2.95;;;19.10;99.90;;;;;;5014952;28;20045;-66
2021/06/11 07:29:42;;;;;;;2.78;2.55;;;19.20;99.90;;;;;;5013152;28;20037;-66
2021/06/11 07:32:11;;;;;;;3.45;3.15;;;19.30;99.90;;;;;;5016456;28;20077;-66
2021/06/11 07:34:38;;;;;;;5.57;3.63;;;19.30;99.90;;;;;;5015963;28;20045;-66
2021/06/11 07:37:06;;;;;;;2.80;2.60;;;19.30;99.90;;;;;;5020528;28;20083;-66
2021/06/11 07:39:34;;;;;;;3.67;3.38;;;19.40;99.90;;;;;;5017646;28;20052;-65
2021/06/11 07:42:02;;;;;;;2.95;2.42;;;19.50;99.90;;;;;;5021023;28;20065;-66
2021/06/11 07:44:29;;;;;;;5.50;2.83;;;19.50;99.90;;;;;;5017444;28;20077;-67
2021/06/11 07:46:56;;;;;;;4.45;3.40;;;19.60;99.90;;;;;;5020888;28;20186;-66
2021/06/11 07:49:23;;;;;;;3.47;2.90;;;19.60;99.90;;;;;;5019243;28;20344;-66
2021/06/11 07:51:50;;;;;;;3.72;3.45;;;19.50;99.90;;;;;;5018118;28;20068;-66
2021/06/11 07:54:17;;;;;;;3.88;3.20;;;19.40;99.90;;;;;;5013466;28;21585;-66
2021/06/11 07:56:44;;;;;;;3.15;2.95;;;19.50;99.90;;;;;;5019929;28;20136;-66
2021/06/11 07:59:11;;;;;;;4.93;3.47;;;19.50;99.90;;;;;;5019135;28;20132;-65
2021/06/11 08:01:38;;;;;;;4.22;2.80;;;19.60;99.90;;;;;;5016031;28;20072;-65
2021/06/11 08:04:05;;;;;;;3.15;2.88;;;19.60;99.90;;;;;;5018037;28;20529;-66
2021/06/11 08:06:32;;;;;;;3.25;2.88;;;19.60;99.90;;;;;;5017797;28;20065;-66
2021/06/11 08:08:58;;;;;;;6.28;3.40;;;19.50;99.90;;;;;;5016892;28;20652;-66
2021/06/11 08:11:25;;;;;;;6.90;4.75;;;19.50;99.90;;;;;;5017689;28;20069;-66
2021/06/11 08:13:52;;;;;;;7.82;4.35;;;19.50;99.90;;;;;;5017865;28;20204;-66
2021/06/11 08:16:19;;;;;;;5.32;4.35;;;19.60;99.90;;;;;;5017722;28;20148;-66
2021/06/11 08:18:46;;;;;;;6.50;5.35;;;19.60;99.90;;;;;;5017928;28;20060;-65
2021/06/11 08:21:13;;;;;;;4.85;4.40;;;19.70;99.90;;;;;;5020351;28;20199;-66
2021/06/11 08:23:41;;;;;;;7.38;4.38;;;19.70;99.90;;;;;;5016640;28;20041;-66
2021/06/11 08:26:07;;;;;;;11.13;4.68;;;19.60;99.90;;;;;;5018149;28;20157;-66
2021/06/11 08:28:34;;;;;;;5.68;4.15;;;19.70;99.90;;;;;;5018075;28;20182;-66
2021/06/11 08:31:02;;;;;;;5.28;4.78;;;19.70;99.90;;;;;;5018962;28;20464;-66
2021/06/11 08:33:29;;;;;;;7.15;5.18;;;19.80;99.90;;;;;;5017305;28;21158;-66
2021/06/11 08:35:56;;;;;;;7.53;4.47;;;19.90;99.90;;;;;;5018297;28;20053;-66
2021/06/11 08:38:23;;;;;;;6.00;4.38;;;20.00;99.90;;;;;;5017752;28;20167;-66
2021/06/11 08:40:50;;;;;;;5.45;4.95;;;20.00;99.90;;;;;;5019483;28;20447;-65
2021/06/11 08:43:18;;;;;;;7.30;4.88;;;20.10;99.90;;;;;;5018571;28;20300;-66
2021/06/11 08:45:48;;;;;;;4.45;4.03;;;20.10;99.90;;;;;;5017824;28;20105;-66
2021/06/11 08:48:15;;;;;;;5.33;4.37;;;20.10;99.90;;;;;;5017500;28;20049;-66
2021/06/11 08:50:43;;;;;;;5.65;4.60;;;20.10;99.90;;;;;;5019122;28;20291;-66
2021/06/11 08:53:10;;;;;;;4.93;4.45;;;20.00;99.90;;;;;;5017977;28;20134;-66
2021/06/11 08:55:37;;;;;;;5.97;5.30;;;20.10;99.90;;;;;;5017586;28;20148;-66
2021/06/11 08:58:06;;;;;;;5.10;4.63;;;20.00;99.90;;;;;;5017040;28;20097;-66
2021/06/11 09:00:32;;;;;;;5.57;5.07;;;20.00;99.90;;;;;;5014550;28;20111;-66
2021/06/11 09:03:13;;;;;;;6.57;5.82;;;20.00;99.90;;;;;;5017045;28;20094;-66
2021/06/11 09:06:00;;;;;;;10.55;5.00;;;20.00;99.90;;;;;;5010261;28;20041;-67
2021/06/11 09:08:28;;;;;;;5.55;5.05;;;19.90;99.90;;;;;;5012051;28;20052;-66
2021/06/11 09:11:22;;;;;;;5.78;5.10;;;19.80;99.90;;;;;;5017153;28;20075;-66
2021/06/11 09:13:54;;;;;;;4.72;4.15;;;20.00;99.90;;;;;;5046048;28;20060;-66
2021/06/11 09:16:24;;;;;;;7.82;5.47;;;20.20;99.90;;;;;;5015478;28;20064;-66
2021/06/11 09:19:05;;;;;;;5.50;5.00;;;20.40;99.90;;;;;;5017621;28;20060;-66
2021/06/11 09:21:36;;;;;;;5.43;5.03;;;20.30;99.90;;;;;;5012322;28;20130;-67
2021/06/11 09:24:27;;;;;;;4.95;4.55;;;20.10;99.90;;;;;;5016986;28;20120;-66
2021/06/11 09:26:56;;;;;;;5.88;5.28;;;19.90;99.90;;;;;;5016907;28;20316;-66
2021/06/11 09:29:26;;;;;;;6.80;5.60;;;19.90;99.90;;;;;;5014491;28;20156;-65
2021/06/11 09:32:07;;;;;;;6.00;4.53;;;20.00;99.90;;;;;;5015123;28;20183;-66
2021/06/11 09:34:34;;;;;;;5.07;4.20;;;20.30;99.90;;;;;;5017519;28;20081;-66
2021/06/11 09:37:05;;;;;;;7.57;5.40;;;20.20;99.90;;;;;;5016755;28;20057;-66
2021/06/11 09:39:51;;;;;;;6.80;6.03;;;20.10;99.90;;;;;;5016894;28;20081;-66
2021/06/11 09:42:33;;;;;;;8.10;5.78;;;20.00;99.90;;;;;;5018210;28;20146;-66
2021/06/11 09:45:02;;;;;;;5.57;5.07;;;20.30;99.90;;;;;;5017177;28;20060;-64
2021/06/11 09:47:34;;;;;;;6.72;6.18;;;20.30;99.90;;;;;;5019230;28;20057;-64
2021/06/11 09:50:14;;;;;;;5.78;5.22;;;20.30;99.90;;;;;;5015472;28;20126;-64
2021/06/11 09:52:57;;;;;;;6.72;5.22;;;20.30;99.90;;;;;;5017202;28;20107;-63
2021/06/11 09:56:00;;;;;;;5.97;5.40;;;20.20;99.90;;;;;;5016800;28;20054;-63
2021/06/11 09:58:34;;;;;;;9.43;5.60;;;20.10;99.90;;;;;;5032771;28;20041;-64
2021/06/11 10:01:12;;;;;;;6.68;5.30;;;20.30;99.90;;;;;;5019200;28;20130;-63
2021/06/11 10:03:46;;;;;;;6.32;5.72;;;20.20;99.90;;;;;;5014750;28;20160;-63
2021/06/11 10:06:16;;;;;;;7.13;5.70;;;20.20;99.90;;;;;;5015838;28;20041;-63
2021/06/11 10:08:46;;;;;;;6.15;5.55;;;20.30;99.90;;;;;;5018005;28;20077;-63
2021/06/11 10:11:24;;;;;;;6.57;4.72;;;20.50;99.90;;;;;;5016685;28;20218;-64
2021/06/11 10:13:54;;;;;;;8.65;4.75;;;20.50;99.90;;;;;;5014195;28;20063;-64
2021/06/11 10:16:21;;;;;;;5.63;4.82;;;20.50;99.90;;;;;;5014278;28;20435;-63
2021/06/11 10:18:49;;;;;;;5.65;5.18;;;20.60;99.90;;;;;;5015173;28;20049;-63
2021/06/11 10:21:16;;;;;;;4.95;4.55;;;20.50;99.90;;;;;;5017086;28;20187;-63
2021/06/11 10:23:43;;;;;;;6.57;5.72;;;20.60;99.90;;;;;;5013178;28;20169;-64
2021/06/11 10:26:12;;;;;;;5.32;4.80;;;20.80;99.90;;;;;;5017825;28;20122;-63
2021/06/11 10:28:47;;;;;;;4.70;4.30;;;20.80;99.90;;;;;;5016529;28;20076;-66
2021/06/11 10:31:20;;;;;;;6.38;5.35;;;20.90;99.90;;;;;;5017500;28;20519;-66
2021/06/11 10:33:47;;;;;;;5.03;3.85;;;20.90;99.90;;;;;;5013450;28;20042;-66
2021/06/11 10:39:00;;;;;;;4.25;3.72;;;21.20;99.90;;;;;;5014797;28;20536;-66
2021/06/11 10:41:28;;;;;;;4.32;3.92;;;21.20;99.90;;;;;;5016739;28;20557;-66
2021/06/11 10:43:55;;;;;;;7.18;5.22;;;21.00;99.90;;;;;;5014214;28;20139;-66
2021/06/11 10:46:24;;;;;;;6.55;3.35;;;21.00;99.90;;;;;;5017657;28;20041;-66
2021/06/11 10:49:01;;;;;;;4.45;3.35;;;21.00;99.90;;;;;;5014522;28;20848;-66
2021/06/11 10:51:40;;;;;;;5.10;3.40;;;21.30;99.90;;;;;;5016635;28;21006;-66
2021/06/11 10:54:18;;;;;;;3.95;3.50;;;21.50;99.90;;;;;;5013278;28;20065;-66
2021/06/11 10:56:57;;;;;;;3.38;3.08;;;21.60;99.90;;;;;;5015930;28;20721;-66
2021/06/11 10:59:38;;;;;;;2.67;2.47;;;21.60;99.90;;;;;;5016249;28;20100;-66
2021/06/11 11:02:06;;;;;;;3.70;3.40;;;21.60;99.90;;;;;;5014850;28;20060;-66
2021/06/11 11:04:35;;;;;;;4.13;3.00;;;21.70;99.90;;;;;;5017277;28;20798;-66
2021/06/11 11:07:24;;;;;;;2.10;1.90;;;21.60;99.90;;;;;;5014576;28;21078;-66
2021/06/11 11:09:56;;;;;;;2.47;1.80;;;21.80;99.90;;;;;;5012563;28;20076;-67
2021/06/11 11:12:27;;;;;;;3.08;2.78;;;21.90;99.90;;;;;;5016184;28;20212;-65
2021/06/11 11:14:56;;;;;;;3.80;3.38;;;22.10;99.90;;;;;;5013615;28;20057;-66
2021/06/11 11:17:24;;;;;;;2.65;2.45;;;22.10;99.90;;;;;;5013501;28;20045;-66
2021/06/11 11:19:58;;;;;;;2.55;2.35;;;22.30;99.90;;;;;;5012268;28;20057;-66
2021/06/11 11:22:31;;;;;;;3.70;2.10;;;22.20;99.90;;;;;;5013767;28;20624;-66
2021/06/11 11:25:13;;;;;;;2.83;2.63;;;22.20;99.90;;;;;;5016434;28;20049;-66
2021/06/11 11:27:52;;;;;;;2.72;2.53;;;22.10;99.90;;;;;;5012450;28;20194;-66
2021/06/11 11:30:23;;;;;;;5.40;2.30;;;22.30;99.90;;;;;;5014290;28;20656;-66
2021/06/11 11:32:50;;;;;;;;;;;22.30;99.90;;;;;;5015828;28;20053;-66
2021/06/11 11:35:19;;;;;;;2.70;2.50;;;22.60;99.90;;;;;;5015437;28;19925;-66
2021/06/11 11:37:49;;;;;;;3.20;1.98;;;22.70;99.90;;;;;;5011948;28;20050;-66
2021/06/11 11:40:16;;;;;;;7.43;3.10;;;22.90;99.90;;;;;;5016519;28;20069;-66
2021/06/11 11:42:43;;;;;;;3.15;2.00;;;23.20;99.90;;;;;;5015079;28;20053;-66
2021/06/11 11:45:10;;;;;;;6.00;2.22;;;23.20;99.60;;;;;;5015803;28;20056;-66
2021/06/11 11:47:38;;;;;;;1.65;1.55;;;23.30;99.20;;;;;;5013254;28;20053;-66
2021/06/11 11:50:06;;;;;;;2.40;2.00;;;23.50;99.80;;;;;;5015243;28;20678;-65
2021/06/11 11:52:34;;;;;;;1.60;1.50;;;23.70;99.00;;;;;;5014590;28;21479;-66
2021/06/11 11:55:05;;;;;;;4.68;2.25;;;23.70;99.30;;;;;;5016401;28;21129;-66
2021/06/11 11:57:32;;;;;;;2.55;2.03;;;23.60;99.00;;;;;;5015140;28;20149;-66
2021/06/11 12:00:00;;;;;;;2.97;1.98;;;23.40;99.70;;;;;;5014483;28;20531;-66
2021/06/11 12:02:29;;;;;;;4.53;2.30;;;23.20;99.80;;;;;;5010715;28;20055;-66
2021/06/11 12:04:56;;;;;;;5.82;2.08;;;23.20;99.20;;;;;;5015132;28;20099;-66
2021/06/11 12:07:23;;;;;;;2.25;1.58;;;23.10;98.60;;;;;;5014198;28;20165;-66
2021/06/11 12:09:53;;;;;;;2.00;1.45;;;23.20;99.10;;;;;;5012122;28;20069;-66
2021/06/11 12:12:20;;;;;;;2.15;1.42;;;23.40;97.70;;;;;;5012965;28;20053;-66
2021/06/11 12:14:47;;;;;;;2.00;1.83;;;23.50;98.20;;;;;;5009668;28;20077;-66
2021/06/11 12:17:14;;;;;;;6.30;3.00;;;23.60;99.30;;;;;;5014321;28;20135;-66
2021/06/11 12:19:41;;;;;;;4.30;1.80;;;23.50;99.90;;;;;;5011729;28;20806;-67
2021/06/11 12:22:08;;;;;;;2.85;1.80;;;23.30;99.90;;;;;;5014430;28;20042;-66
2021/06/11 12:24:37;;;;;;;1.83;1.63;;;23.10;99.90;;;;;;5015505;28;20072;-66
2021/06/11 12:27:04;;;;;;;2.10;2.00;;;23.20;99.70;;;;;;5016426;28;20450;-66
2021/06/11 12:29:32;;;;;;;3.60;1.38;;;23.30;98.40;;;;;;5017048;28;21053;-66
2021/06/11 12:31:59;;;;;;;3.78;1.75;;;23.40;99.00;;;;;;5014797;28;20132;-66
2021/06/11 12:34:26;;;;;;;7.00;1.95;;;23.60;99.30;;;;;;5017120;28;20088;-66
2021/06/11 12:36:53;;;;;;;3.22;1.75;;;23.40;99.90;;;;;;5016840;28;20053;-66
2021/06/11 12:39:20;;;;;;;2.40;1.77;;;23.40;99.90;;;;;;5016751;28;20131;-66
2021/06/11 12:41:54;;;;;;;2.92;1.90;;;23.40;99.20;;;;;;5014839;28;20132;-66
2021/06/11 12:44:21;;;;;;;4.55;2.35;;;23.70;99.30;;;;;;5018510;28;20041;-66
2021/06/11 12:46:50;;;;;;;3.13;2.30;;;23.60;99.00;;;;;;5015976;28;20064;-66
2021/06/11 12:49:22;;;;;;;2.10;1.90;;;23.50;98.30;;;;;;5016245;28;20725;-66
2021/06/11 12:51:50;;;;;;;1.90;1.80;;;23.80;98.90;;;;;;5014141;28;22749;-66
2021/06/11 12:54:17;;;;;;;7.40;3.15;;;24.00;96.40;;;;;;5018835;28;20363;-66
2021/06/11 12:56:44;;;;;;;1.83;1.67;;;24.10;96.10;;;;;;5014917;28;20148;-67
2021/06/11 12:59:12;;;;;;;5.28;2.97;;;24.20;96.70;;;;;;5019319;28;20123;-66
2021/06/11 13:01:39;;;;;;;2.35;2.15;;;24.00;97.60;;;;;;5016469;28;20584;-66